Time;durP1;ratioP1;P1;durP2;ratioP2;P2;SDS_P1;SDS_P2;PMS_P1;PMS_P2;Temp;Humidity;BMP_temperature;BMP_pressure;BME280_temperature;BME280_humidity;BME280_pressure;Samples;Min_cycle;Max_cycle;Signal;HPM_P1;HPM_P2
2023/12/15 00:00:47;;;;;;;3.25;2.95;;;4.50;99.90;;;;;;463427;253;27498;-79
2023/12/15 00:02:48;;;;;;;3.30;3.00;;;4.60;99.90;;;;;;463365;253;27466;-80
2023/12/15 00:04:50;;;;;;;3.65;2.87;;;4.50;99.90;;;;;;463344;252;27515;-79
2023/12/15 00:06:51;;;;;;;3.80;2.85;;;4.50;99.90;;;;;;463354;253;27535;-81
2023/12/15 00:08:52;;;;;;;4.05;3.20;;;4.40;99.90;;;;;;463457;253;27542;-78
2023/12/15 00:10:53;;;;;;;2.87;2.60;;;4.50;99.90;;;;;;463341;249;27522;-79
2023/12/15 00:12:55;;;;;;;3.33;3.03;;;4.50;99.90;;;;;;463408;253;28172;-80
2023/12/15 00:14:56;;;;;;;3.15;2.95;;;4.60;99.90;;;;;;463391;253;28951;-77
2023/12/15 00:16:57;;;;;;;3.20;2.95;;;4.50;99.90;;;;;;463375;253;28090;-79
2023/12/15 00:18:58;;;;;;;6.15;3.40;;;4.50;99.90;;;;;;463398;253;27534;-79
2023/12/15 00:21:00;;;;;;;3.62;3.10;;;4.50;99.90;;;;;;463368;253;27526;-77
2023/12/15 00:23:01;;;;;;;3.75;3.45;;;4.60;99.90;;;;;;463374;253;27573;-77
2023/12/15 00:25:02;;;;;;;3.28;2.97;;;4.60;99.90;;;;;;463351;253;27573;-78
2023/12/15 00:27:03;;;;;;;3.80;3.50;;;4.60;99.90;;;;;;463460;253;27546;-79
2023/12/15 00:29:05;;;;;;;3.58;3.28;;;4.50;99.90;;;;;;463314;253;27514;-79
2023/12/15 00:31:06;;;;;;;3.22;2.95;;;4.60;99.90;;;;;;463401;257;27454;-77
2023/12/15 00:33:07;;;;;;;3.87;3.55;;;4.60;99.90;;;;;;463344;253;27440;-79
2023/12/15 00:35:08;;;;;;;3.60;3.30;;;4.60;99.90;;;;;;463414;257;27443;-78
2023/12/15 00:37:10;;;;;;;3.58;3.28;;;4.50;99.90;;;;;;463362;257;27938;-78
2023/12/15 00:39:11;;;;;;;4.65;3.75;;;4.60;99.90;;;;;;463363;253;28023;-79
2023/12/15 00:41:12;;;;;;;4.12;3.45;;;4.60;99.90;;;;;;463397;253;28038;-80
2023/12/15 00:43:14;;;;;;;4.25;3.80;;;4.50;99.90;;;;;;463359;253;27510;-79
2023/12/15 00:45:15;;;;;;;5.32;4.15;;;4.50;99.90;;;;;;463346;253;27537;-79
2023/12/15 00:47:16;;;;;;;5.20;4.15;;;4.50;99.90;;;;;;463358;257;27435;-78
2023/12/15 00:49:17;;;;;;;4.32;3.92;;;4.60;99.90;;;;;;463273;253;27479;-79
2023/12/15 00:51:18;;;;;;;5.00;4.07;;;4.60;99.90;;;;;;463356;253;27473;-79
2023/12/15 00:53:20;;;;;;;4.12;3.70;;;4.50;99.90;;;;;;463416;253;27438;-79
2023/12/15 00:55:21;;;;;;;4.03;3.70;;;4.60;99.90;;;;;;463400;253;27535;-77
2023/12/15 00:57:22;;;;;;;3.87;3.53;;;4.60;99.90;;;;;;463454;253;27450;-78
2023/12/15 00:59:23;;;;;;;5.10;4.43;;;4.50;99.90;;;;;;463342;253;27445;-81
2023/12/15 01:01:25;;;;;;;5.07;4.03;;;4.50;99.90;;;;;;463324;253;28013;-79
2023/12/15 01:03:26;;;;;;;5.20;4.28;;;4.50;99.90;;;;;;463278;253;27949;-79
2023/12/15 01:05:27;;;;;;;4.30;3.87;;;4.50;99.90;;;;;;463401;253;28087;-79
2023/12/15 01:07:31;;;;;;;4.85;4.05;;;4.50;99.90;;;;;;463413;253;27660;-78
2023/12/15 01:09:30;;;;;;;4.22;3.83;;;4.60;99.90;;;;;;463241;253;27529;-80
2023/12/15 01:11:31;;;;;;;4.53;3.75;;;4.60;99.90;;;;;;463361;253;27533;-78
2023/12/15 01:13:33;;;;;;;5.43;4.22;;;4.60;99.90;;;;;;463392;253;27542;-77
2023/12/15 01:15:34;;;;;;;5.30;4.03;;;4.60;99.90;;;;;;463387;253;27565;-77
2023/12/15 01:17:35;;;;;;;4.65;4.25;;;4.60;99.90;;;;;;463394;253;27489;-78
2023/12/15 01:19:36;;;;;;;5.30;3.87;;;4.60;99.90;;;;;;463238;253;27546;-77
2023/12/15 01:21:37;;;;;;;5.10;3.80;;;4.50;99.90;;;;;;463457;253;27542;-79
2023/12/15 01:23:38;;;;;;;4.72;3.72;;;4.50;99.90;;;;;;463198;253;27770;-80
2023/12/15 01:25:40;;;;;;;5.15;4.03;;;4.50;99.90;;;;;;463424;252;27560;-78
2023/12/15 01:27:41;;;;;;;4.75;4.00;;;4.60;99.90;;;;;;463485;253;28034;-79
2023/12/15 01:29:42;;;;;;;4.47;4.00;;;4.60;99.90;;;;;;463425;253;27444;-79
2023/12/15 01:31:43;;;;;;;5.78;4.18;;;4.50;99.90;;;;;;463356;253;29270;-79
2023/12/15 01:33:45;;;;;;;4.97;4.00;;;4.60;99.90;;;;;;463424;253;27511;-78
2023/12/15 01:35:46;;;;;;;4.78;4.15;;;4.50;99.90;;;;;;463315;253;27462;-80
2023/12/15 01:37:47;;;;;;;4.57;4.15;;;4.50;99.90;;;;;;463515;257;27524;-79
2023/12/15 01:39:48;;;;;;;6.82;5.22;;;4.50;99.90;;;;;;463393;253;27655;-79
2023/12/15 01:41:50;;;;;;;4.30;3.90;;;4.50;99.90;;;;;;463416;253;27446;-77
2023/12/15 01:43:51;;;;;;;5.25;4.70;;;4.50;99.90;;;;;;463386;257;27442;-80
2023/12/15 01:45:52;;;;;;;5.25;4.75;;;4.50;99.90;;;;;;463464;257;27434;-78
2023/12/15 01:47:54;;;;;;;6.43;4.95;;;4.50;99.90;;;;;;463419;253;27453;-78
2023/12/15 01:49:55;;;;;;;6.20;5.10;;;4.50;99.90;;;;;;463365;253;27494;-80
2023/12/15 01:51:56;;;;;;;5.85;4.90;;;4.50;99.90;;;;;;463336;253;28117;-80
2023/12/15 01:53:57;;;;;;;5.50;4.70;;;4.50;99.90;;;;;;463265;253;28916;-80
2023/12/15 01:55:58;;;;;;;6.10;4.57;;;4.50;99.90;;;;;;463385;253;28033;-78
2023/12/15 01:58:00;;;;;;;7.70;5.40;;;4.50;99.90;;;;;;463452;253;27940;-80
2023/12/15 02:00:06;;;;;;;6.75;5.95;;;4.40;99.90;;;;;;463393;253;27454;-81
2023/12/15 02:02:02;;;;;;;4.95;4.40;;;4.40;99.90;;;;;;463350;253;27561;-80
2023/12/15 02:04:03;;;;;;;6.22;5.00;;;4.40;99.90;;;;;;463313;253;27558;-81
2023/12/15 02:06:05;;;;;;;7.50;4.82;;;4.40;99.90;;;;;;463395;253;27470;-78
2023/12/15 02:08:06;;;;;;;6.40;4.43;;;4.30;99.90;;;;;;463403;253;27462;-81
2023/12/15 02:10:07;;;;;;;8.02;5.00;;;4.30;99.90;;;;;;463361;253;27552;-78
2023/12/15 02:12:08;;;;;;;6.87;4.95;;;4.30;99.90;;;;;;463494;253;27486;-80
2023/12/15 02:14:10;;;;;;;6.10;4.85;;;4.30;99.90;;;;;;463435;253;27469;-78
2023/12/15 02:16:11;;;;;;;6.65;4.75;;;4.40;99.90;;;;;;463428;253;27442;-79
2023/12/15 02:18:12;;;;;;;6.87;5.20;;;4.30;99.90;;;;;;463374;253;28192;-77
2023/12/15 02:20:13;;;;;;;5.18;4.20;;;4.30;99.90;;;;;;463395;252;28833;-79
2023/12/15 02:22:15;;;;;;;6.57;4.90;;;4.30;99.90;;;;;;463380;253;28288;-80
2023/12/15 02:24:16;;;;;;;6.40;4.85;;;4.30;99.90;;;;;;463258;253;27564;-81
2023/12/15 02:26:17;;;;;;;5.50;4.57;;;4.30;99.90;;;;;;463315;257;27553;-79
2023/12/15 02:28:18;;;;;;;7.55;5.07;;;4.20;99.90;;;;;;463335;253;27450;-79
2023/12/15 02:30:20;;;;;;;6.95;4.68;;;4.30;99.90;;;;;;463322;253;27449;-79
2023/12/15 02:32:21;;;;;;;6.95;5.25;;;4.20;99.90;;;;;;463337;253;27541;-79
2023/12/15 02:34:24;;;;;;;7.72;5.47;;;4.20;99.90;;;;;;463332;257;27482;-78
2023/12/15 02:36:23;;;;;;;6.05;5.15;;;4.10;99.90;;;;;;463331;253;27565;-77
2023/12/15 02:38:25;;;;;;;6.97;4.60;;;4.20;99.90;;;;;;463341;254;27478;-79
2023/12/15 02:40:26;;;;;;;7.47;5.03;;;4.20;99.90;;;;;;463306;253;27525;-77
2023/12/15 02:42:27;;;;;;;8.32;5.80;;;4.20;99.90;;;;;;463269;253;27582;-78
2023/12/15 02:44:28;;;;;;;5.90;5.00;;;4.20;99.90;;;;;;463353;253;27958;-79
2023/12/15 02:46:30;;;;;;;7.05;5.12;;;4.20;99.90;;;;;;463391;253;27930;-78
2023/12/15 02:48:31;;;;;;;8.52;5.03;;;4.20;99.90;;;;;;463369;253;28064;-81
2023/12/15 02:50:32;;;;;;;6.12;4.80;;;4.20;99.90;;;;;;463311;253;28053;-78
2023/12/15 02:52:33;;;;;;;7.85;6.30;;;4.20;99.90;;;;;;463272;257;27534;-78
2023/12/15 02:54:35;;;;;;;6.60;5.47;;;4.20;99.90;;;;;;463427;253;27466;-79
2023/12/15 02:56:36;;;;;;;7.97;5.72;;;4.20;99.90;;;;;;463424;253;27505;-79
2023/12/15 02:58:37;;;;;;;8.00;5.78;;;4.20;99.90;;;;;;463328;253;27526;-78
2023/12/15 03:00:38;;;;;;;6.62;5.40;;;4.30;99.90;;;;;;463281;253;27445;-79
2023/12/15 03:02:40;;;;;;;6.32;5.53;;;4.30;99.90;;;;;;463227;257;27450;-79
2023/12/15 03:04:41;;;;;;;7.72;5.30;;;4.40;99.90;;;;;;463331;253;27660;-76
2023/12/15 03:06:42;;;;;;;7.72;5.75;;;4.40;99.90;;;;;;463366;253;27468;-78
2023/12/15 03:08:43;;;;;;;9.43;6.00;;;4.40;99.90;;;;;;463276;253;27462;-79
2023/12/15 03:10:45;;;;;;;7.50;5.20;;;4.40;99.90;;;;;;463306;253;28080;-78
2023/12/15 03:12:46;;;;;;;8.30;5.22;;;4.40;99.90;;;;;;463278;253;27919;-79
2023/12/15 03:14:47;;;;;;;7.85;5.45;;;4.40;99.90;;;;;;463334;253;28112;-78
2023/12/15 03:16:48;;;;;;;7.15;5.45;;;4.40;99.90;;;;;;463395;253;27951;-78
2023/12/15 03:18:50;;;;;;;7.53;6.05;;;4.40;99.90;;;;;;463363;257;27454;-78
2023/12/15 03:20:51;;;;;;;8.60;6.22;;;4.50;99.90;;;;;;463294;253;27458;-80
2023/12/15 03:22:53;;;;;;;8.55;6.12;;;4.50;99.90;;;;;;463362;253;27461;-78
2023/12/15 03:24:53;;;;;;;7.85;5.45;;;4.50;99.90;;;;;;463330;253;27555;-81
2023/12/15 03:26:55;;;;;;;9.10;6.82;;;4.50;99.90;;;;;;463242;253;27431;-78
2023/12/15 03:28:56;;;;;;;9.63;7.00;;;4.50;99.90;;;;;;463336;254;27586;-78
2023/12/15 03:30:57;;;;;;;9.40;6.40;;;4.50;99.90;;;;;;469527;250;27469;-78
2023/12/15 03:32:58;;;;;;;8.40;6.25;;;4.50;99.90;;;;;;463309;253;27452;-77
2023/12/15 03:35:00;;;;;;;9.73;7.15;;;4.50;99.90;;;;;;469675;254;27477;-78
2023/12/15 03:37:01;;;;;;;9.13;5.87;;;4.50;99.90;;;;;;463349;253;28131;-79
2023/12/15 03:39:03;;;;;;;11.40;6.30;;;4.50;99.90;;;;;;469531;250;27923;-78
2023/12/15 03:41:03;;;;;;;10.32;7.32;;;4.60;99.90;;;;;;463317;253;28040;-78
2023/12/15 03:43:05;;;;;;;8.20;6.15;;;4.60;99.90;;;;;;469720;254;27480;-78
2023/12/15 03:45:06;;;;;;;8.85;6.03;;;4.50;99.90;;;;;;463396;257;27454;-79
2023/12/15 03:47:07;;;;;;;9.43;5.87;;;4.60;99.90;;;;;;469765;254;27417;-78
2023/12/15 03:49:08;;;;;;;10.30;6.35;;;4.50;99.90;;;;;;463345;253;27453;-78
2023/12/15 03:51:10;;;;;;;8.68;6.68;;;4.50;99.90;;;;;;469597;254;27449;-80
2023/12/15 03:53:11;;;;;;;8.52;6.25;;;4.60;99.90;;;;;;463313;253;27482;-80
2023/12/15 03:55:12;;;;;;;9.85;6.28;;;4.60;99.90;;;;;;469546;254;27437;-79
2023/12/15 03:57:13;;;;;;;11.55;7.28;;;4.70;99.90;;;;;;463314;253;27460;-78
2023/12/15 03:59:15;;;;;;;14.13;8.25;;;4.60;99.90;;;;;;469656;250;28192;-78
2023/12/15 04:01:16;;;;;;;10.05;7.53;;;4.70;99.90;;;;;;463374;252;28009;-79
2023/12/15 04:03:17;;;;;;;10.75;7.57;;;4.70;99.90;;;;;;469593;253;27417;-79
2023/12/15 04:05:18;;;;;;;11.40;7.32;;;4.70;99.90;;;;;;463329;257;27601;-80
2023/12/15 04:07:20;;;;;;;13.20;9.60;;;4.60;99.90;;;;;;469423;253;27465;-80
2023/12/15 04:09:21;;;;;;;11.18;7.65;;;4.60;99.90;;;;;;463255;253;27443;-79
2023/12/15 04:11:22;;;;;;;11.88;8.00;;;4.70;99.90;;;;;;469668;254;27453;-78
2023/12/15 04:13:23;;;;;;;13.10;8.85;;;4.70;99.90;;;;;;463369;257;27552;-78
2023/12/15 04:15:26;;;;;;;13.00;8.45;;;4.70;99.90;;;;;;469662;254;27952;-78
2023/12/15 04:17:26;;;;;;;11.43;7.43;;;4.70;99.90;;;;;;463306;257;28050;-78
2023/12/15 04:19:27;;;;;;;12.20;8.25;;;4.70;99.90;;;;;;469669;250;28023;-79
2023/12/15 04:21:29;;;;;;;14.52;9.15;;;4.70;99.90;;;;;;463430;253;27574;-79
2023/12/15 04:23:30;;;;;;;15.68;8.93;;;4.70;99.90;;;;;;469666;250;27485;-80
2023/12/15 04:25:31;;;;;;;12.55;8.75;;;4.70;99.90;;;;;;463318;257;27649;-78
2023/12/15 04:27:32;;;;;;;12.37;7.75;;;4.70;99.90;;;;;;469641;254;27528;-78
2023/12/15 04:29:34;;;;;;;12.98;8.75;;;4.70;99.90;;;;;;463418;253;27447;-78
2023/12/15 04:31:35;;;;;;;15.38;9.20;;;4.70;99.90;;;;;;469696;254;27567;-79
2023/12/15 04:33:36;;;;;;;14.77;8.68;;;4.70;99.90;;;;;;463353;253;28230;-79
2023/12/15 04:35:37;;;;;;;11.75;8.45;;;4.70;99.90;;;;;;469605;254;29973;-79
2023/12/15 04:37:39;;;;;;;13.80;8.55;;;4.70;99.90;;;;;;463386;257;27545;-78
2023/12/15 04:39:40;;;;;;;13.88;8.80;;;4.70;99.90;;;;;;469680;250;27580;-79
2023/12/15 04:41:41;;;;;;;13.25;9.60;;;4.80;99.90;;;;;;463297;253;27537;-79
2023/12/15 04:43:42;;;;;;;13.48;8.25;;;4.80;99.90;;;;;;469655;250;27448;-79
2023/12/15 04:45:44;;;;;;;17.75;8.95;;;4.80;99.90;;;;;;463300;257;27537;-79
2023/12/15 04:47:45;;;;;;;15.07;8.88;;;4.80;99.90;;;;;;469697;254;27543;-79
2023/12/15 04:49:46;;;;;;;15.50;10.32;;;4.70;99.90;;;;;;463369;253;27651;-80
2023/12/15 04:51:47;;;;;;;17.40;10.40;;;4.70;99.90;;;;;;469761;254;27909;-80
2023/12/15 04:53:49;;;;;;;17.48;10.13;;;4.70;99.90;;;;;;463371;257;27622;-79
2023/12/15 04:55:50;;;;;;;17.65;10.57;;;4.70;99.90;;;;;;469746;254;27449;-78
2023/12/15 04:57:51;;;;;;;13.65;9.70;;;4.70;99.90;;;;;;463362;257;27637;-77
2023/12/15 04:59:52;;;;;;;19.58;10.25;;;4.80;99.90;;;;;;469672;250;27532;-78
2023/12/15 05:01:54;;;;;;;17.92;10.52;;;4.80;99.90;;;;;;463440;253;27562;-79
2023/12/15 05:03:55;;;;;;;17.37;11.52;;;4.80;99.90;;;;;;469738;254;28215;-80
2023/12/15 05:05:56;;;;;;;15.65;10.75;;;4.80;99.90;;;;;;463401;254;28133;-81
2023/12/15 05:07:57;;;;;;;17.37;11.70;;;4.70;99.90;;;;;;469707;251;27437;-78
2023/12/15 05:09:59;;;;;;;18.67;11.65;;;4.80;99.90;;;;;;463370;253;27546;-79
2023/12/15 05:12:00;;;;;;;19.20;11.85;;;4.70;99.90;;;;;;469679;254;27511;-78
2023/12/15 05:14:01;;;;;;;19.45;11.80;;;4.80;99.90;;;;;;463334;253;27573;-80
2023/12/15 05:16:02;;;;;;;20.62;12.05;;;4.80;99.90;;;;;;469710;254;27549;-78
2023/12/15 05:18:04;;;;;;;17.23;11.20;;;4.80;99.90;;;;;;463477;257;28166;-79
2023/12/15 05:20:05;;;;;;;22.00;12.45;;;4.80;99.90;;;;;;469648;250;28171;-78
2023/12/15 05:22:07;;;;;;;18.60;11.30;;;4.80;99.90;;;;;;463345;253;27552;-79
2023/12/15 05:24:07;;;;;;;22.60;12.73;;;4.80;99.90;;;;;;469689;254;27451;-79
2023/12/15 05:26:09;;;;;;;19.80;10.75;;;4.90;99.90;;;;;;463382;255;27546;-79
2023/12/15 05:28:10;;;;;;;19.70;11.05;;;4.90;99.90;;;;;;469655;251;27440;-78
2023/12/15 05:30:14;;;;;;;20.40;12.57;;;4.90;99.90;;;;;;463481;253;28143;-78
2023/12/15 05:32:13;;;;;;;16.20;11.00;;;4.90;99.90;;;;;;469381;254;28032;-79
2023/12/15 05:34:14;;;;;;;20.73;12.95;;;4.90;99.90;;;;;;463348;253;27545;-79
2023/12/15 05:36:15;;;;;;;17.67;11.12;;;4.90;99.90;;;;;;469581;254;27529;-79
2023/12/15 05:38:17;;;;;;;22.45;13.02;;;4.90;99.90;;;;;;463405;254;27588;-79
2023/12/15 05:40:18;;;;;;;24.08;11.88;;;4.90;99.90;;;;;;469710;250;27525;-78
2023/12/15 05:42:19;;;;;;;20.77;13.00;;;4.90;99.90;;;;;;463393;253;27554;-79
2023/12/15 05:44:20;;;;;;;17.70;11.70;;;4.90;99.90;;;;;;469720;254;27889;-79
2023/12/15 05:46:21;;;;;;;19.95;12.35;;;4.90;99.90;;;;;;463453;253;27530;-80
2023/12/15 05:48:23;;;;;;;18.25;11.27;;;4.90;99.90;;;;;;463393;251;27547;-80
2023/12/15 05:50:24;;;;;;;18.90;11.15;;;4.90;99.90;;;;;;463262;253;27505;-79
2023/12/15 05:52:25;;;;;;;19.00;11.20;;;4.90;99.90;;;;;;463404;252;27698;-79
2023/12/15 05:54:26;;;;;;;19.10;12.13;;;4.90;99.90;;;;;;463266;254;27541;-79
2023/12/15 05:56:28;;;;;;;18.52;11.45;;;4.90;99.90;;;;;;463182;254;28065;-77
2023/12/15 05:58:29;;;;;;;22.42;12.00;;;4.90;99.90;;;;;;463238;255;27629;-79
2023/12/15 06:00:30;;;;;;;16.92;11.55;;;4.90;99.90;;;;;;463425;253;27466;-79
2023/12/15 06:02:31;;;;;;;16.73;11.10;;;4.90;99.90;;;;;;463404;251;27474;-78
2023/12/15 06:04:33;;;;;;;16.10;10.57;;;4.90;99.90;;;;;;463330;253;27903;-80
2023/12/15 06:06:34;;;;;;;16.40;10.32;;;4.90;99.90;;;;;;463382;253;28249;-78
2023/12/15 06:08:35;;;;;;;15.55;10.15;;;5.00;99.90;;;;;;463353;255;28100;-79
2023/12/15 06:10:36;;;;;;;19.27;10.40;;;5.00;99.90;;;;;;463307;252;27407;-79
2023/12/15 06:12:38;;;;;;;16.45;10.32;;;5.00;99.90;;;;;;463254;251;27544;-81
2023/12/15 06:14:39;;;;;;;14.48;10.00;;;5.00;99.90;;;;;;463433;253;27427;-79
2023/12/15 06:16:40;;;;;;;14.10;9.52;;;5.00;99.90;;;;;;463439;251;27557;-80
2023/12/15 06:18:41;;;;;;;13.73;10.07;;;5.00;99.90;;;;;;463311;253;27982;-80
2023/12/15 06:20:43;;;;;;;15.55;9.25;;;5.00;99.90;;;;;;463394;251;28896;-80
2023/12/15 06:22:44;;;;;;;14.55;10.30;;;5.00;99.90;;;;;;463334;257;27477;-80
2023/12/15 06:24:45;;;;;;;16.95;10.93;;;5.00;99.90;;;;;;463327;251;27574;-80
2023/12/15 06:26:47;;;;;;;14.18;10.00;;;5.00;99.90;;;;;;463322;254;27575;-80
2023/12/15 06:28:48;;;;;;;15.45;9.60;;;5.00;99.90;;;;;;463317;255;27592;-80
2023/12/15 06:30:49;;;;;;;13.50;9.35;;;5.00;99.90;;;;;;463424;251;27566;-79
2023/12/15 06:32:50;;;;;;;13.93;9.27;;;5.00;99.90;;;;;;463318;257;28088;-78
2023/12/15 06:34:52;;;;;;;15.00;9.95;;;5.00;99.90;;;;;;463465;253;27946;-79
2023/12/15 06:36:53;;;;;;;16.08;9.65;;;5.00;99.90;;;;;;463311;257;27522;-79
2023/12/15 06:38:54;;;;;;;15.27;10.10;;;5.00;99.90;;;;;;463401;254;27490;-81
2023/12/15 06:40:55;;;;;;;16.60;9.65;;;5.00;99.90;;;;;;463315;251;27578;-80
2023/12/15 06:42:57;;;;;;;15.25;9.60;;;5.00;99.90;;;;;;463342;253;27495;-77
2023/12/15 06:45:04;;;;;;;13.50;9.38;;;5.00;99.90;;;;;;463311;251;27454;-78
2023/12/15 06:46:59;;;;;;;15.15;9.55;;;5.00;99.90;;;;;;463227;253;28264;-78
2023/12/15 06:49:00;;;;;;;13.18;9.35;;;5.00;99.90;;;;;;463317;252;27926;-80
2023/12/15 06:51:02;;;;;;;16.20;9.80;;;5.00;99.90;;;;;;463315;253;27494;-78
2023/12/15 06:53:03;;;;;;;14.52;9.88;;;5.00;99.90;;;;;;463346;251;27461;-78
2023/12/15 06:55:04;;;;;;;13.15;9.25;;;5.00;99.90;;;;;;463392;252;27520;-79
2023/12/15 06:57:06;;;;;;;11.88;9.27;;;5.00;99.90;;;;;;463427;253;27609;-80
2023/12/15 06:59:07;;;;;;;13.05;9.30;;;5.00;99.90;;;;;;463402;252;27429;-78
2023/12/15 07:01:08;;;;;;;13.77;9.57;;;5.00;99.90;;;;;;463444;252;27522;-79
2023/12/15 07:03:09;;;;;;;13.27;8.95;;;5.00;99.90;;;;;;463024;253;28046;-79
2023/12/15 07:05:10;;;;;;;13.57;9.13;;;5.00;99.90;;;;;;462946;257;27459;-79
2023/12/15 07:07:12;;;;;;;12.07;8.18;;;5.00;99.90;;;;;;463932;255;27403;-81
2023/12/15 07:09:13;;;;;;;15.98;9.80;;;5.00;99.90;;;;;;471881;249;27523;-82
2023/12/15 07:11:14;;;;;;;13.32;8.75;;;5.10;99.90;;;;;;467252;250;27450;-79
2023/12/15 07:13:16;;;;;;;12.05;8.82;;;5.10;99.90;;;;;;470262;251;27430;-77
2023/12/15 07:15:17;;;;;;;15.75;8.50;;;5.10;99.90;;;;;;469735;253;27459;-78
2023/12/15 07:17:18;;;;;;;13.77;8.23;;;5.10;99.90;;;;;;469825;253;27991;-79
2023/12/15 07:19:19;;;;;;;12.43;8.55;;;5.10;99.90;;;;;;468996;250;28037;-79
2023/12/15 07:21:20;;;;;;;12.35;8.73;;;5.10;99.90;;;;;;468498;254;27548;-78
2023/12/15 07:23:22;;;;;;;15.45;9.32;;;5.10;99.90;;;;;;471043;253;27448;-80
2023/12/15 07:25:26;;;;;;;13.25;8.27;;;5.10;99.90;;;;;;467320;254;27446;-78
2023/12/15 07:27:24;;;;;;;14.60;9.77;;;5.10;99.90;;;;;;471436;253;27572;-78
2023/12/15 07:29:26;;;;;;;11.82;8.13;;;5.10;99.90;;;;;;467383;251;27502;-78
2023/12/15 07:31:27;;;;;;;12.65;9.02;;;5.10;99.90;;;;;;470022;251;28018;-81
2023/12/15 07:33:28;;;;;;;10.20;8.05;;;5.10;99.90;;;;;;469074;254;28252;-82
2023/12/15 07:35:29;;;;;;;14.63;10.35;;;5.10;99.90;;;;;;470174;251;27593;-79
2023/12/15 07:37:31;;;;;;;13.13;9.35;;;5.20;99.90;;;;;;455806;257;27475;-79
2023/12/15 07:39:32;;;;;;;10.65;8.63;;;5.20;99.90;;;;;;471808;245;27499;-80
2023/12/15 07:41:33;;;;;;;12.37;8.20;;;5.10;99.90;;;;;;467201;253;27430;-79
2023/12/15 07:43:34;;;;;;;11.40;8.90;;;5.20;99.90;;;;;;470363;249;27369;-79
2023/12/15 07:45:36;;;;;;;14.35;9.38;;;5.20;99.90;;;;;;469600;248;28251;-80
2023/12/15 07:47:37;;;;;;;11.52;8.02;;;5.10;99.90;;;;;;473071;244;28260;-80
2023/12/15 07:49:38;;;;;;;14.27;10.55;;;5.20;99.90;;;;;;481551;247;27445;-80
2023/12/15 07:51:40;;;;;;;18.58;15.20;;;5.20;99.90;;;;;;481424;247;27392;-78
2023/12/15 07:53:42;;;;;;;21.33;14.13;;;5.30;99.90;;;;;;481656;247;27361;-79
2023/12/15 07:55:42;;;;;;;17.87;14.23;;;5.20;99.90;;;;;;481410;247;27393;-80
2023/12/15 07:57:43;;;;;;;18.65;14.15;;;5.20;99.90;;;;;;481553;247;27428;-79
2023/12/15 07:59:45;;;;;;;17.70;13.30;;;5.20;99.90;;;;;;481270;246;28090;-79
2023/12/15 08:01:46;;;;;;;16.48;12.25;;;5.20;99.90;;;;;;481370;247;27388;-79
2023/12/15 08:03:47;;;;;;;18.65;12.18;;;5.20;99.90;;;;;;480552;246;27829;-79
2023/12/15 08:05:49;;;;;;;15.40;10.80;;;5.20;99.90;;;;;;481694;241;27460;-81
2023/12/15 08:07:49;;;;;;;14.52;10.25;;;5.20;99.90;;;;;;481500;241;27472;-81
2023/12/15 08:09:51;;;;;;;18.77;11.45;;;5.20;99.90;;;;;;485283;241;27514;-73
2023/12/15 08:11:52;;;;;;;16.55;11.18;;;5.30;99.90;;;;;;487309;243;27395;-73
2023/12/15 08:13:53;;;;;;;21.45;10.90;;;5.30;99.90;;;;;;487145;244;27516;-73
2023/12/15 08:15:54;;;;;;;15.68;10.65;;;5.30;99.90;;;;;;487242;244;27511;-74
2023/12/15 08:17:56;;;;;;;15.18;10.48;;;5.20;99.90;;;;;;487263;244;27885;-73
2023/12/15 08:19:57;;;;;;;16.67;10.85;;;5.30;99.90;;;;;;487368;244;27400;-77
2023/12/15 08:21:59;;;;;;;15.65;10.68;;;5.30;99.90;;;;;;487265;244;27404;-74
2023/12/15 08:24:00;;;;;;;14.55;9.98;;;5.30;99.90;;;;;;487344;244;27911;-75
2023/12/15 08:26:01;;;;;;;17.02;10.00;;;5.40;99.90;;;;;;487411;244;27983;-76
2023/12/15 08:28:03;;;;;;;12.50;9.75;;;5.40;99.90;;;;;;487239;244;27473;-75
2023/12/15 08:30:04;;;;;;;14.77;9.60;;;5.50;99.90;;;;;;487253;244;27364;-75
2023/12/15 08:32:05;;;;;;;18.00;10.43;;;5.50;99.90;;;;;;487228;244;27526;-73
2023/12/15 08:34:06;;;;;;;13.07;9.05;;;5.50;99.90;;;;;;487221;244;27373;-74
2023/12/15 08:36:08;;;;;;;13.77;9.95;;;5.50;99.90;;;;;;487238;244;27960;-74
2023/12/15 08:38:09;;;;;;;19.05;10.30;;;5.50;99.90;;;;;;487587;244;27887;-76
2023/12/15 08:40:10;;;;;;;16.75;10.63;;;5.50;99.90;;;;;;487651;244;27369;-74
2023/12/15 08:42:11;;;;;;;15.55;10.10;;;5.50;99.90;;;;;;483434;244;27514;-73
2023/12/15 08:44:13;;;;;;;16.55;10.15;;;5.50;99.90;;;;;;488403;242;27473;-74
2023/12/15 08:46:14;;;;;;;16.70;9.80;;;5.50;99.90;;;;;;485702;245;27572;-75
2023/12/15 08:48:15;;;;;;;13.30;9.98;;;5.50;99.90;;;;;;498721;238;27495;-73
2023/12/15 08:50:16;;;;;;;18.27;9.45;;;5.50;99.90;;;;;;484191;244;27996;-75
2023/12/15 08:52:18;;;;;;;13.60;9.73;;;5.50;99.90;;;;;;486531;244;27363;-73
2023/12/15 08:54:19;;;;;;;15.20;10.63;;;5.50;99.90;;;;;;486559;243;27426;-74
2023/12/15 08:56:20;;;;;;;15.38;9.82;;;5.50;99.90;;;;;;485837;244;27352;-75
2023/12/15 08:58:23;;;;;;;14.55;9.63;;;5.60;99.90;;;;;;492831;241;27520;-74
2023/12/15 09:00:23;;;;;;;14.93;9.50;;;5.60;99.90;;;;;;492744;239;27492;-77
2023/12/15 09:02:24;;;;;;;12.10;8.82;;;5.70;99.90;;;;;;479438;245;27869;-76
2023/12/15 09:04:25;;;;;;;13.52;9.13;;;5.80;99.90;;;;;;478649;247;28089;-73
2023/12/15 09:06:26;;;;;;;15.15;9.65;;;5.90;99.90;;;;;;478680;246;27432;-78
2023/12/15 09:08:28;;;;;;;14.27;9.05;;;5.80;99.90;;;;;;478620;247;27496;-75
2023/12/15 09:10:35;;;;;;;13.77;9.02;;;5.80;99.90;;;;;;482214;246;27551;-77
2023/12/15 09:12:33;;;;;;;11.12;7.87;;;5.80;99.90;;;;;;477945;245;27643;-75
2023/12/15 09:14:34;;;;;;;10.68;7.90;;;5.80;99.90;;;;;;477280;248;27496;-78
2023/12/15 09:16:36;;;;;;;12.30;8.13;;;5.80;99.90;;;;;;477442;245;27624;-76
2023/12/15 09:18:37;;;;;;;11.27;8.32;;;5.70;99.90;;;;;;490155;242;27920;-74
2023/12/15 09:20:38;;;;;;;15.25;9.93;;;5.80;99.90;;;;;;484168;244;27904;-76
2023/12/15 09:22:40;;;;;;;13.73;8.90;;;5.80;99.90;;;;;;483867;244;27353;-74
2023/12/15 09:24:41;;;;;;;12.73;8.80;;;5.80;99.90;;;;;;477099;249;27503;-76
2023/12/15 09:26:45;;;;;;;14.68;8.60;;;5.90;99.90;;;;;;491036;241;27828;-75
2023/12/15 09:28:43;;;;;;;14.18;8.88;;;5.90;99.90;;;;;;482273;245;27421;-76
2023/12/15 09:30:45;;;;;;;14.30;8.52;;;5.90;99.90;;;;;;485770;245;28080;-77
2023/12/15 09:32:46;;;;;;;12.82;7.85;;;5.90;99.90;;;;;;485442;245;28079;-74
2023/12/15 09:34:47;;;;;;;9.55;7.10;;;5.90;99.90;;;;;;485756;245;28056;-74
2023/12/15 09:36:49;;;;;;;10.07;7.57;;;5.80;99.90;;;;;;482570;245;27486;-75
2023/12/15 09:38:50;;;;;;;11.20;8.15;;;5.70;99.90;;;;;;477392;248;27517;-76
2023/12/15 09:40:51;;;;;;;9.57;7.20;;;5.70;99.90;;;;;;477233;248;27509;-74
2023/12/15 09:42:52;;;;;;;13.75;7.30;;;5.80;99.90;;;;;;477222;245;27631;-73
2023/12/15 09:44:54;;;;;;;8.90;7.00;;;5.70;99.90;;;;;;477274;248;28888;-75
2023/12/15 09:46:57;;;;;;;10.15;7.45;;;5.70;99.90;;;;;;480666;245;28031;-74
